createdAt,value
2019-04-23T00:00:27.753Z,11.2
2019-04-23T00:01:28.301Z,11.2
2019-04-23T00:02:12.953Z,11.2
2019-04-23T00:02:58.157Z,11.2
2019-04-23T00:03:51.378Z,11.2
2019-04-23T00:04:35.003Z,11.1
2019-04-23T00:05:40.579Z,11.1
2019-04-23T00:06:41.766Z,11.1
2019-04-23T00:07:15.033Z,11.1
2019-04-23T00:08:05.757Z,11.1
2019-04-23T00:09:38.264Z,11
2019-04-23T00:10:28.274Z,11
2019-04-23T00:11:18.851Z,11
2019-04-23T00:12:08.625Z,11
2019-04-23T00:12:58.224Z,10.9
2019-04-23T00:13:48.216Z,10.9
2019-04-23T00:14:45.659Z,10.9
2019-04-23T00:15:30.219Z,10.9
2019-04-23T00:16:24.687Z,10.8
2019-04-23T00:17:14.817Z,10.8
2019-04-23T00:18:02.632Z,10.8
2019-04-23T00:18:49.164Z,10.8
2019-04-23T00:19:39.515Z,10.7
2019-04-23T00:20:33.709Z,10.7
2019-04-23T00:21:20.038Z,10.7
2019-04-23T00:22:12.960Z,10.7
2019-04-23T00:23:04.881Z,10.7
2019-04-23T00:24:01.330Z,10.6
2019-04-23T00:25:43.446Z,10.6
2019-04-23T00:26:30.322Z,10.6
2019-04-23T00:27:22.185Z,10.6
2019-04-23T00:27:57.669Z,10.6
2019-04-23T00:28:58.670Z,10.5
2019-04-23T00:29:45.786Z,10.5
2019-04-23T00:30:47.969Z,10.5
2019-04-23T00:31:23.760Z,10.5
2019-04-23T00:32:14.958Z,10.5
2019-04-23T00:33:05.092Z,10.4
2019-04-23T00:33:49.411Z,10.4
2019-04-23T00:34:47.131Z,10.4
2019-04-23T00:35:32.247Z,10.4
2019-04-23T00:36:25.274Z,10.4
2019-04-23T00:37:18.218Z,10.3
2019-04-23T00:38:03.360Z,10.3
2019-04-23T00:38:49.374Z,10.3
2019-04-23T00:39:46.603Z,10.3
2019-04-23T00:40:31.546Z,10.2
2019-04-23T00:41:24.382Z,10.2
2019-04-23T00:42:13.631Z,10.2
2019-04-23T00:43:01.781Z,10.2
2019-04-23T00:43:54.326Z,10.1
2019-04-23T00:44:45.748Z,10.1
2019-04-23T00:45:39.668Z,10.1
2019-04-23T00:46:21.972Z,10.1
2019-04-23T00:47:08.671Z,10.1
2019-04-23T00:48:01.533Z,10
2019-04-23T00:48:57.399Z,10
2019-04-23T00:49:48.776Z,10
2019-04-23T00:50:37.898Z,10
2019-04-23T00:51:21.905Z,9.9
2019-04-23T00:52:14.243Z,9.9
2019-04-23T00:53:10.778Z,9.9
2019-04-23T00:53:43.497Z,9.9
2019-04-23T00:54:48.653Z,9.8
2019-04-23T00:57:40.391Z,9.8
2019-04-23T00:58:12.322Z,9.8
2019-04-23T00:59:00.247Z,9.8
2019-04-23T00:59:53.412Z,9.7
2019-04-23T01:00:41.047Z,9.7
2019-04-23T01:01:35.656Z,9.7
2019-04-23T01:02:16.396Z,9.7
2019-04-23T01:03:51.616Z,9.6
2019-04-23T01:04:55.647Z,9.6
2019-04-23T01:05:40.856Z,9.6
2019-04-23T01:06:44.439Z,9.6
2019-04-23T01:07:18.203Z,9.6
2019-04-23T01:08:11.632Z,9.5
2019-04-23T01:09:13.887Z,9.5
2019-04-23T01:09:52.251Z,9.5
2019-04-23T01:10:42.880Z,9.4
2019-04-23T01:11:30.257Z,9.4
2019-04-23T01:12:22.426Z,9.4
2019-04-23T01:13:08.480Z,9.4
2019-04-23T01:14:00.646Z,9.4
2019-04-23T01:14:47.982Z,9.3
2019-04-23T01:15:38.562Z,9.3
2019-04-23T01:16:20.768Z,9.3
2019-04-23T01:17:26.022Z,9.3
2019-04-23T01:18:17.880Z,9.2
2019-04-23T01:19:18.538Z,9.2
2019-04-23T01:19:49.357Z,9.2
2019-04-23T01:20:43.784Z,9.2
2019-04-23T01:21:09.616Z,9.2
2019-04-23T01:21:58.430Z,9.1
2019-04-23T01:22:48.723Z,9.1
2019-04-23T01:23:44.240Z,9.1
2019-04-23T01:24:31.220Z,9.1
2019-04-23T01:25:28.297Z,9
2019-04-23T01:26:29.225Z,9
2019-04-23T01:28:13.534Z,9
2019-04-23T01:29:01.267Z,8.9
2019-04-23T01:29:57.438Z,8.9
2019-04-23T01:30:46.638Z,8.9
2019-04-23T01:31:32.948Z,8.9
2019-04-23T01:32:25.260Z,8.8
2019-04-23T01:33:17.968Z,8.8
2019-04-23T01:34:02.878Z,8.8
2019-04-23T01:34:55.724Z,8.8
2019-04-23T01:35:47.777Z,8.7
2019-04-23T01:36:32.356Z,8.7
2019-04-23T01:37:25.269Z,8.7
2019-04-23T01:38:10.841Z,8.7
2019-04-23T01:39:06.045Z,8.7
2019-04-23T01:39:57.154Z,8.6
2019-04-23T01:40:40.221Z,8.6
2019-04-23T01:41:33.156Z,8.6
2019-04-23T01:42:28.239Z,8.6
2019-04-23T01:43:15.913Z,8.6
2019-04-23T01:43:54.723Z,8.5
2019-04-23T01:44:59.859Z,8.5
2019-04-23T01:45:34.037Z,8.5
2019-04-23T01:46:35.390Z,8.5
2019-04-23T01:47:22.913Z,8.4
2019-04-23T01:48:12.300Z,8.4
2019-04-23T01:49:05.566Z,8.4
2019-04-23T01:50:01.416Z,8.4
2019-04-23T01:51:33.694Z,8.3
2019-04-23T01:52:31.542Z,8.3
2019-04-23T01:54:01.620Z,8.3
2019-04-23T01:54:51.783Z,8.3
2019-04-23T01:55:46.378Z,8.3
2019-04-23T01:56:32.997Z,8.3
2019-04-23T01:57:30.465Z,8.2
2019-04-23T01:59:04.896Z,8.2
2019-04-23T02:00:01.420Z,8.2
2019-04-23T02:00:46.701Z,8.2
2019-04-23T02:01:38.554Z,8.2
2019-04-23T02:02:25.979Z,8.2
2019-04-23T02:03:14.854Z,8.2
2019-04-23T02:03:54.172Z,8.2
2019-04-23T02:04:51.119Z,8.3
2019-04-23T02:05:55.120Z,8.3
2019-04-23T02:06:31.196Z,8.3
2019-04-23T02:07:29.379Z,8.3
2019-04-23T02:08:12.459Z,8.3
2019-04-23T02:10:06.591Z,8.4
2019-04-23T02:10:50.747Z,8.4
2019-04-23T02:11:31.459Z,8.4
2019-04-23T02:12:25.473Z,8.4
2019-04-23T02:13:16.010Z,8.4
2019-04-23T02:14:01.315Z,8.4
2019-04-23T02:15:40.724Z,8.4
2019-04-23T02:16:35.494Z,8.5
2019-04-23T02:17:15.597Z,8.5
2019-04-23T02:19:02.679Z,8.5
2019-04-23T02:20:00.845Z,8.5
2019-04-23T02:21:37.780Z,8.5
2019-04-23T02:22:29.805Z,8.5
2019-04-23T02:23:18.141Z,8.5
2019-04-23T02:23:56.711Z,8.4
2019-04-23T02:25:01.331Z,8.4
2019-04-23T02:25:49.858Z,8.4
2019-04-23T02:26:33.799Z,8.4
2019-04-23T02:27:27.640Z,8.4
2019-04-23T02:28:25.228Z,8.4
2019-04-23T02:29:07.437Z,8.3
2019-04-23T02:30:05.169Z,8.3
2019-04-23T02:31:48.718Z,8.3
2019-04-23T02:32:28.648Z,8.2
2019-04-23T02:35:08.567Z,8.2
2019-04-23T02:35:53.693Z,8.1
2019-04-23T02:36:44.848Z,8.1
2019-04-23T02:37:44.902Z,8.1
2019-04-23T02:39:11.276Z,8.1
2019-04-23T02:40:03.677Z,8.1
2019-04-23T02:41:45.497Z,8.1
2019-04-23T02:42:49.317Z,8.1
2019-04-23T02:43:15.925Z,8
2019-04-23T02:45:56.155Z,8
2019-04-23T02:46:40.583Z,7.9
2019-04-23T02:47:31.628Z,7.9
2019-04-23T02:48:10.275Z,7.9
2019-04-23T02:50:19.858Z,7.9
2019-04-23T02:51:03.322Z,7.8
2019-04-23T02:51:41.732Z,7.8
2019-04-23T02:52:28.532Z,7.8
2019-04-23T02:54:34.683Z,7.8
2019-04-23T02:55:07.797Z,7.8
2019-04-23T02:56:01.033Z,7.8
2019-04-23T02:58:18.308Z,7.7
2019-04-23T02:58:25.809Z,7.7
2019-04-23T03:00:11.154Z,7.7
2019-04-23T03:01:06.096Z,7.7
2019-04-23T03:01:39.044Z,7.7
2019-04-23T03:02:40.644Z,7.7
2019-04-23T03:03:24.822Z,7.7
2019-04-23T03:05:56.654Z,7.6
2019-04-23T03:06:37.853Z,7.5
2019-04-23T03:07:38.791Z,7.5
2019-04-23T03:08:48.933Z,7.5
2019-04-23T03:09:58.540Z,7.5
2019-04-23T03:11:40.026Z,7.4
2019-04-23T03:12:46.346Z,7.4
2019-04-23T03:13:34.624Z,7.4
2019-04-23T03:14:22.989Z,7.4
2019-04-23T03:15:08.725Z,7.4
2019-04-23T03:16:00.259Z,7.3
2019-04-23T03:16:53.087Z,7.3
2019-04-23T03:17:24.010Z,7.3
2019-04-23T03:18:38.803Z,7.3
2019-04-23T03:19:09.307Z,7.3
2019-04-23T03:19:58.310Z,7.3
2019-04-23T03:21:05.517Z,7.3
2019-04-23T03:22:34.917Z,7.3
2019-04-23T03:25:05.011Z,7.2
2019-04-23T03:25:35.448Z,7.2
2019-04-23T03:26:47.103Z,7.2
2019-04-23T03:28:26.676Z,7.2
2019-04-23T03:30:05.810Z,7.1
2019-04-23T03:32:11.667Z,7.2
2019-04-23T03:33:52.191Z,7.1
2019-04-23T03:35:07.804Z,7.1
2019-04-23T03:35:07.805Z,7.1
2019-04-23T03:36:56.240Z,7
2019-04-23T03:37:44.589Z,7
2019-04-23T03:40:01.579Z,7
2019-04-23T03:40:54.429Z,7
2019-04-23T03:41:47.803Z,7
2019-04-23T03:42:32.834Z,6.9
2019-04-23T03:43:24.913Z,6.9
2019-04-23T03:45:07.282Z,6.9
2019-04-23T03:46:36.182Z,6.9
2019-04-23T03:48:40.758Z,6.8
2019-04-23T03:49:05.313Z,6.8
2019-04-23T03:50:04.211Z,6.8
2019-04-23T03:50:43.225Z,6.8
2019-04-23T03:51:33.460Z,6.8
2019-04-23T03:53:32.147Z,6.8
2019-04-23T03:55:03.053Z,6.7
2019-04-23T03:56:02.023Z,6.7
2019-04-23T03:58:27.557Z,6.7
2019-04-23T03:59:19.699Z,6.7
2019-04-23T04:01:43.130Z,6.6
2019-04-23T04:02:39.626Z,6.6
2019-04-23T04:04:03.579Z,6.6
2019-04-23T04:05:00.279Z,6.6
2019-04-23T04:06:33.257Z,6.6
2019-04-23T04:08:33.511Z,6.5
2019-04-23T04:09:25.760Z,6.5
2019-04-23T04:09:59.146Z,6.5
2019-04-23T04:11:26.945Z,6.5
2019-04-23T04:12:34.740Z,6.5
2019-04-23T04:13:39.939Z,6.5
2019-04-23T04:15:03.507Z,6.5
2019-04-23T04:16:48.815Z,6.5
2019-04-23T04:19:24.324Z,6.4
2019-04-23T04:20:04.764Z,6.4
2019-04-23T04:21:00.453Z,6.4
2019-04-23T04:21:47.452Z,6.4
2019-04-23T04:22:36.887Z,6.4
2019-04-23T04:23:42.485Z,6.4
2019-04-23T04:24:21.244Z,6.4
2019-04-23T04:25:06.465Z,6.4
2019-04-23T04:28:27.555Z,6.4
2019-04-23T04:30:47.961Z,6.4
2019-04-23T04:32:35.844Z,6.4
2019-04-23T04:34:35.823Z,6.3
2019-04-23T04:35:56.100Z,6.3
2019-04-23T04:36:26.190Z,6.3
2019-04-23T04:38:35.893Z,6.3
2019-04-23T04:39:05.073Z,6.2
2019-04-23T04:41:49.967Z,6.3
2019-04-23T04:42:32.594Z,6.3
2019-04-23T04:43:31.122Z,6.3
2019-04-23T04:44:26.003Z,6.3
2019-04-23T04:46:04.112Z,6.2
2019-04-23T04:46:44.945Z,6.3
2019-04-23T04:48:22.677Z,6.2
2019-04-23T04:49:19.537Z,6.2
2019-04-23T04:50:59.830Z,6.2
2019-04-23T04:51:57.575Z,6.2
2019-04-23T04:52:46.718Z,6.2
2019-04-23T04:53:44.592Z,6.2
2019-04-23T04:55:02.722Z,6.2
2019-04-23T04:55:54.519Z,6.2
2019-04-23T04:56:33.981Z,6.2
2019-04-23T04:57:35.736Z,6.2
2019-04-23T04:58:20.710Z,6.2
2019-04-23T05:01:01.209Z,6.2
2019-04-23T05:01:48.009Z,6.2
2019-04-23T05:02:52.350Z,6.2
2019-04-23T05:03:23.540Z,6.3
2019-04-23T05:06:12.541Z,6.3
2019-04-23T05:06:50.925Z,6.3
2019-04-23T05:07:33.809Z,6.3
2019-04-23T05:08:27.925Z,6.3
2019-04-23T05:10:59.347Z,6.3
2019-04-23T05:11:45.161Z,6.3
2019-04-23T05:12:27.229Z,6.3
2019-04-23T05:13:38.857Z,6.3
2019-04-23T05:14:12.499Z,6.3
2019-04-23T05:15:00.639Z,6.3
2019-04-23T05:15:49.825Z,6.3
2019-04-23T05:16:43.003Z,6.3
2019-04-23T05:17:41.419Z,6.3
2019-04-23T05:18:27.002Z,6.3
2019-04-23T05:19:21.638Z,6.3
2019-04-23T05:20:04.347Z,6.3
2019-04-23T05:20:57.865Z,6.4
2019-04-23T05:21:53.843Z,6.4
2019-04-23T05:22:48.534Z,6.4
2019-04-23T05:23:33.248Z,6.4
2019-04-23T05:24:14.671Z,6.4
2019-04-23T05:25:57.671Z,6.4
2019-04-23T05:26:37.118Z,6.4
2019-04-23T05:27:46.003Z,6.4
2019-04-23T05:28:29.732Z,6.4
2019-04-23T05:29:14.310Z,6.4
2019-04-23T05:30:58.513Z,6.5
2019-04-23T05:31:46.335Z,6.5
2019-04-23T05:32:40.932Z,6.5
2019-04-23T05:41:09.789Z,6.6
2019-04-23T05:41:45.022Z,6.6
2019-04-23T05:42:39.674Z,6.6
2019-04-23T05:43:25.764Z,6.6
2019-04-23T05:44:20.953Z,6.7
2019-04-23T05:45:07.804Z,6.7
2019-04-23T05:45:55.015Z,6.7
2019-04-23T05:46:44.680Z,6.7
2019-04-23T05:47:32.327Z,6.7
2019-04-23T05:48:37.165Z,6.7
2019-04-23T05:49:17.159Z,6.8
2019-04-23T05:51:03.979Z,6.8
2019-04-23T05:51:54.875Z,6.8
2019-04-23T05:52:45.654Z,6.9
2019-04-23T05:53:32.844Z,6.9
2019-04-23T05:54:18.484Z,6.9
2019-04-23T05:54:59.795Z,7
2019-04-23T05:56:01.401Z,7
2019-04-23T05:56:43.564Z,7
2019-04-23T05:57:38.007Z,7
2019-04-23T05:58:28.463Z,7.1
2019-04-23T05:59:15.873Z,7.1
2019-04-23T06:00:07.261Z,7.1
2019-04-23T06:01:05.081Z,7.2
2019-04-23T06:02:40.596Z,7.2
2019-04-23T06:03:28.421Z,7.3
2019-04-23T06:05:08.632Z,7.4
2019-04-23T06:06:02.777Z,7.4
2019-04-23T06:07:08.189Z,7.5
2019-04-23T06:07:42.136Z,7.5
2019-04-23T06:09:18.704Z,7.6
2019-04-23T06:11:01.777Z,7.7
2019-04-23T06:11:44.894Z,7.8
2019-04-23T06:12:36.408Z,7.9
2019-04-23T06:14:18.557Z,8
2019-04-23T06:15:10.913Z,8.1
2019-04-23T06:16:04.496Z,8.1
2019-04-23T06:18:01.373Z,8.2
2019-04-23T06:18:37.959Z,8.2
2019-04-23T06:19:41.567Z,8.4
2019-04-23T06:20:02.714Z,8.4
2019-04-23T06:21:08.802Z,8.4
2019-04-23T06:22:05.765Z,8.5
2019-04-23T06:22:41.970Z,8.5
2019-04-23T06:23:36.340Z,8.6
2019-04-23T06:24:25.909Z,8.6
2019-04-23T06:25:19.344Z,8.7
2019-04-23T06:26:17.685Z,8.7
2019-04-23T06:27:45.763Z,8.9
2019-04-23T06:28:31.418Z,9
2019-04-23T06:29:25.015Z,9
2019-04-23T06:31:00.417Z,9.2
2019-04-23T06:31:42.773Z,9.2
2019-04-23T06:32:42.574Z,9.3
2019-04-23T06:33:32.035Z,9.3
2019-04-23T06:34:27.922Z,9.3
2019-04-23T06:35:09.606Z,9.4
2019-04-23T06:36:05.017Z,9.4
2019-04-23T06:37:15.876Z,9.5
2019-04-23T06:38:02.968Z,9.6
2019-04-23T06:38:51.810Z,9.6
2019-04-23T06:39:23.177Z,9.7
2019-04-23T06:41:00.572Z,9.8
2019-04-23T06:41:54.562Z,9.9
2019-04-23T06:42:42.649Z,9.9
2019-04-23T06:43:31.879Z,10
2019-04-23T06:44:23.914Z,10.1
2019-04-23T06:45:04.508Z,10.1
2019-04-23T06:47:42.657Z,10.3
2019-04-23T06:48:33.664Z,10.3
2019-04-23T06:49:30.222Z,10.4
2019-04-23T06:50:11.513Z,10.4
2019-04-23T06:52:38.619Z,10.6
2019-04-23T06:53:28.461Z,10.6
2019-04-23T06:54:24.201Z,10.6
2019-04-23T06:55:14.459Z,10.6
2019-04-23T06:58:04.252Z,10.8
2019-04-23T06:58:41.446Z,10.8
2019-04-23T06:59:23.985Z,10.8
2019-04-23T07:00:13.060Z,10.8
2019-04-23T07:01:04.719Z,10.9
2019-04-23T07:01:59.106Z,10.9
2019-04-23T07:02:44.048Z,10.9
2019-04-23T07:03:37.000Z,10.9
2019-04-23T07:04:23.707Z,11
2019-04-23T07:05:15.594Z,11
2019-04-23T07:06:22.121Z,11
2019-04-23T07:07:04.248Z,11.1
2019-04-23T07:08:55.683Z,11.1
2019-04-23T07:09:25.464Z,11.2
2019-04-23T07:10:18.225Z,11.2
2019-04-23T07:11:15.556Z,11.3
2019-04-23T07:11:53.840Z,11.3
2019-04-23T07:12:46.970Z,11.4
2019-04-23T07:13:46.337Z,11.4
2019-04-23T07:14:35.477Z,11.5
2019-04-23T07:15:33.115Z,11.5
2019-04-23T07:16:14.302Z,11.6
2019-04-23T07:16:55.766Z,11.6
2019-04-23T07:17:47.534Z,11.7
2019-04-23T07:18:40.440Z,11.7
2019-04-23T07:19:30.086Z,11.7
2019-04-23T07:20:19.731Z,11.8
2019-04-23T07:21:12.799Z,11.8
2019-04-23T07:22:06.164Z,11.8
2019-04-23T07:22:49.581Z,11.9
2019-04-23T07:23:44.605Z,11.9
2019-04-23T07:24:27.452Z,11.9
2019-04-23T07:25:31.113Z,11.9
2019-04-23T07:27:01.075Z,12
2019-04-23T07:27:47.196Z,12
2019-04-23T07:28:52.962Z,12
2019-04-23T07:29:30.651Z,12
2019-04-23T07:30:29.128Z,12.1
2019-04-23T07:31:58.829Z,12.1
2019-04-23T07:32:56.164Z,12.1
2019-04-23T07:33:50.533Z,12.1
2019-04-23T07:34:37.247Z,12.2
2019-04-23T07:35:15.605Z,12.3
2019-04-23T07:36:22.619Z,12.3
2019-04-23T07:37:04.627Z,12.3
2019-04-23T07:38:54.487Z,12.4
2019-04-23T07:39:45.415Z,12.4
2019-04-23T07:40:26.851Z,12.4
2019-04-23T07:41:23.247Z,12.4
2019-04-23T07:42:07.926Z,12.5
2019-04-23T07:42:56.233Z,12.5
2019-04-23T07:43:48.466Z,12.5
2019-04-23T07:44:42.016Z,12.6
2019-04-23T07:45:29.333Z,12.6
2019-04-23T07:46:23.530Z,12.6
2019-04-23T07:47:15.242Z,12.7
2019-04-23T07:48:05.825Z,12.7
2019-04-23T07:48:39.952Z,12.7
2019-04-23T07:49:37.603Z,12.8
2019-04-23T07:50:30.765Z,12.8
2019-04-23T07:51:13.692Z,12.8
2019-04-23T07:52:14.724Z,12.9
2019-04-23T07:53:12.429Z,12.9
2019-04-23T07:53:45.388Z,12.9
2019-04-23T07:54:38.597Z,13
2019-04-23T07:55:34.101Z,13
2019-04-23T07:56:12.861Z,13.1
2019-04-23T07:57:13.302Z,13.1
2019-04-23T07:57:58.104Z,13.2
2019-04-23T07:58:39.173Z,13.2
2019-04-23T07:59:42.698Z,13.2
2019-04-23T08:00:34.272Z,13.3
2019-04-23T08:01:12.391Z,13.3
2019-04-23T08:02:13.764Z,13.4
2019-04-23T08:03:05.174Z,13.5
2019-04-23T08:03:54.016Z,13.5
2019-04-23T08:04:53.971Z,13.6
2019-04-23T08:05:33.152Z,13.6
2019-04-23T08:06:21.155Z,13.7
2019-04-23T08:07:19.415Z,13.8
2019-04-23T08:08:06.590Z,13.8
2019-04-23T08:08:56.018Z,13.9
2019-04-23T08:09:53.023Z,14
2019-04-23T08:10:35.551Z,14.1
2019-04-23T08:12:24.777Z,14.3
2019-04-23T08:13:15.389Z,14.4
2019-04-23T08:15:41.296Z,14.7
2019-04-23T08:16:27.614Z,14.8
2019-04-23T08:18:11.948Z,15
2019-04-23T08:18:57.163Z,15.1
2019-04-23T08:19:53.971Z,15.1
2019-04-23T08:20:48.895Z,15.2
2019-04-23T08:21:30.462Z,15.3
2019-04-23T08:23:16.002Z,15.3
2019-04-23T08:24:25.390Z,15.3
2019-04-23T08:25:52.189Z,15.4
2019-04-23T08:26:46.990Z,15.4
2019-04-23T08:28:41.331Z,15.5
2019-04-23T08:29:18.214Z,15.6
2019-04-23T08:30:09.034Z,15.6
2019-04-23T08:31:07.403Z,15.7
2019-04-23T08:32:06.661Z,15.8
2019-04-23T08:32:56.660Z,15.8
2019-04-23T08:33:49.218Z,15.8
2019-04-23T08:34:42.856Z,15.9
2019-04-23T08:35:19.316Z,15.9
2019-04-23T08:36:19.932Z,15.9
2019-04-23T08:37:25.207Z,15.9
2019-04-23T08:38:42.441Z,16
2019-04-23T08:39:38.169Z,16.1
2019-04-23T08:40:27.281Z,16.1
2019-04-23T08:42:26.818Z,16.2
2019-04-23T08:43:17.066Z,16.3
2019-04-23T08:43:56.572Z,16.3
2019-04-23T08:45:02.890Z,16.4
2019-04-23T08:46:50.699Z,16.4
2019-04-23T08:47:31.478Z,16.5
2019-04-23T08:49:21.638Z,16.6
2019-04-23T08:49:56.198Z,16.6
2019-04-23T08:51:20.584Z,16.6
2019-04-23T08:52:34.501Z,16.7
2019-04-23T08:53:39.207Z,16.7
2019-04-23T08:54:23.525Z,16.7
2019-04-23T08:55:08.208Z,16.7
2019-04-23T08:55:53.369Z,16.7
2019-04-23T08:56:54.582Z,16.7
2019-04-23T08:57:31.703Z,16.7
2019-04-23T08:59:47.127Z,16.7
2019-04-23T09:00:32.495Z,16.7
2019-04-23T09:01:14.402Z,16.8
2019-04-23T09:02:21.879Z,16.8
2019-04-23T09:02:58.490Z,16.8
2019-04-23T09:04:00.131Z,16.8
2019-04-23T09:04:49.334Z,16.8
2019-04-23T09:05:31.398Z,16.8
2019-04-23T09:06:15.609Z,16.8
2019-04-23T09:07:16.392Z,16.8
2019-04-23T09:09:43.536Z,16.9
2019-04-23T09:10:33.738Z,16.9
2019-04-23T09:11:34.929Z,16.9
2019-04-23T09:12:15.979Z,17
2019-04-23T09:13:17.992Z,17
2019-04-23T09:14:04.479Z,17
2019-04-23T09:14:36.940Z,17
2019-04-23T09:16:28.266Z,17
2019-04-23T09:17:15.269Z,17.1
2019-04-23T09:18:02.419Z,17.1
2019-04-23T09:19:14.141Z,17.1
2019-04-23T09:19:52.990Z,17
2019-04-23T09:20:35.460Z,17.1
2019-04-23T09:21:20.889Z,17.1
2019-04-23T09:22:20.687Z,17.1
2019-04-23T09:23:01.580Z,17.1
2019-04-23T09:23:51.577Z,17.1
2019-04-23T09:24:46.702Z,17.1
2019-04-23T09:25:53.363Z,17.2
2019-04-23T09:26:20.372Z,17.2
2019-04-23T09:27:59.182Z,17.2
2019-04-23T09:28:56.175Z,17.3
2019-04-23T09:30:31.582Z,17.3
2019-04-23T09:31:45.254Z,17.4
2019-04-23T09:33:13.475Z,17.4
2019-04-23T09:33:57.877Z,17.4
2019-04-23T09:34:51.987Z,17.4
2019-04-23T09:36:40.328Z,17.5
2019-04-23T09:38:06.885Z,17.5
2019-04-23T09:38:59.642Z,17.5
2019-04-23T09:39:48.725Z,17.5
2019-04-23T09:40:54.205Z,17.5
2019-04-23T09:41:30.999Z,17.5
2019-04-23T09:42:23.832Z,17.5
2019-04-23T09:43:11.782Z,17.5
2019-04-23T09:44:02.599Z,17.5
2019-04-23T09:44:57.875Z,17.5
2019-04-23T09:45:33.536Z,17.5
2019-04-23T09:46:28.690Z,17.5
2019-04-23T09:47:18.830Z,17.5
2019-04-23T09:48:26.255Z,17.5
2019-04-23T09:49:05.373Z,17.6
2019-04-23T09:49:53.736Z,17.6
2019-04-23T09:50:48.734Z,17.6
2019-04-23T09:52:44.459Z,17.7
2019-04-23T09:53:32.658Z,17.8
2019-04-23T09:54:39.650Z,17.8
2019-04-23T09:55:37.226Z,17.8
2019-04-23T09:56:51.926Z,17.8
2019-04-23T09:57:48.384Z,17.9
2019-04-23T09:58:28.368Z,17.9
2019-04-23T10:00:30.641Z,17.9
2019-04-23T10:01:21.529Z,17.9
2019-04-23T10:02:28.972Z,18
2019-04-23T10:03:19.532Z,18
2019-04-23T10:04:07.202Z,18
2019-04-23T10:05:03.856Z,18.1
2019-04-23T10:06:01.847Z,18.1
2019-04-23T10:06:57.278Z,18.1
2019-04-23T10:07:54.169Z,18.1
2019-04-23T10:08:42.823Z,18.2
2019-04-23T10:17:13.914Z,18.5
2019-04-23T10:18:04.470Z,18.5
2019-04-23T10:18:53.410Z,18.6
2019-04-23T10:19:44.659Z,18.6
2019-04-23T10:20:34.353Z,18.7
2019-04-23T10:21:23.866Z,18.8
2019-04-23T10:22:13.416Z,18.8
2019-04-23T10:23:04.147Z,18.9
2019-04-23T10:23:54.740Z,18.9
2019-04-23T10:24:43.595Z,19
2019-04-23T10:25:34.128Z,19
2019-04-23T10:26:24.028Z,19.1
2019-04-23T10:27:14.718Z,19.1
2019-04-23T10:28:07.200Z,19.2
2019-04-23T10:28:53.966Z,19.3
2019-04-23T10:29:43.633Z,19.3
2019-04-23T10:30:33.893Z,19.4
2019-04-23T10:31:25.119Z,19.4
2019-04-23T10:32:13.874Z,19.4
2019-04-23T10:33:05.426Z,19.5
2019-04-23T10:33:53.943Z,19.5
2019-04-23T10:34:53.393Z,19.5
2019-04-23T10:35:43.080Z,19.5
2019-04-23T10:36:27.634Z,19.6
2019-04-23T10:37:15.251Z,19.7
2019-04-23T10:38:08.735Z,19.7
2019-04-23T10:39:00.407Z,19.6
2019-04-23T10:39:48.163Z,19.6
2019-04-23T10:40:38.648Z,19.6
2019-04-23T10:41:25.665Z,19.6
2019-04-23T10:42:14.300Z,19.5
2019-04-23T10:43:05.406Z,19.5
2019-04-23T10:43:56.213Z,19.5
2019-04-23T10:44:46.370Z,19.5
2019-04-23T10:45:44.451Z,19.5
2019-04-23T10:46:42.437Z,19.6
2019-04-23T10:47:36.644Z,19.6
2019-04-23T10:48:32.485Z,19.7
2019-04-23T10:49:40.148Z,19.7
2019-04-23T10:50:16.577Z,19.7
2019-04-23T10:50:54.292Z,19.8
2019-04-23T10:51:50.383Z,19.8
2019-04-23T10:52:35.639Z,19.8
2019-04-23T10:53:42.392Z,19.8
2019-04-23T10:55:05.651Z,19.9
2019-04-23T10:56:09.559Z,19.9
2019-04-23T10:56:50.858Z,19.9
2019-04-23T10:57:30.694Z,19.9
2019-04-23T10:59:26.815Z,20
2019-04-23T11:00:08.272Z,20
2019-04-23T11:01:04.004Z,20
2019-04-23T11:01:51.879Z,20
2019-04-23T11:02:55.668Z,20
2019-04-23T11:04:38.081Z,20
2019-04-23T11:05:15.527Z,20
2019-04-23T11:06:16.300Z,20
2019-04-23T11:07:18.957Z,20
2019-04-23T11:07:33.771Z,20
2019-04-23T11:08:34.670Z,20
2019-04-23T11:10:15.464Z,20
2019-04-23T11:11:14.027Z,20
2019-04-23T11:11:58.793Z,20
2019-04-23T11:12:48.242Z,20
2019-04-23T11:14:30.542Z,20
2019-04-23T11:15:26.334Z,20.1
2019-04-23T11:16:49.046Z,20.3
2019-04-23T11:17:51.134Z,20.3
2019-04-23T11:18:44.860Z,20.4
2019-04-23T11:19:31.750Z,20.5
2019-04-23T11:20:25.151Z,20.5
2019-04-23T11:21:02.691Z,20.5
2019-04-23T11:22:01.183Z,20.6
2019-04-23T11:22:44.821Z,20.6
2019-04-23T11:23:33.954Z,20.6
2019-04-23T11:24:35.482Z,20.7
2019-04-23T11:25:25.849Z,20.7
2019-04-23T11:26:05.279Z,20.8
2019-04-23T11:26:54.709Z,20.8
2019-04-23T11:28:32.359Z,20.8
2019-04-23T11:29:33.727Z,20.8
2019-04-23T11:30:25.140Z,20.8
2019-04-23T11:31:00.769Z,20.8
2019-04-23T11:32:04.241Z,20.7
2019-04-23T11:32:53.536Z,20.8
2019-04-23T11:33:37.767Z,20.8
2019-04-23T11:34:47.328Z,20.8
2019-04-23T11:35:19.431Z,20.8
2019-04-23T11:36:59.387Z,20.8
2019-04-23T11:37:40.659Z,20.8
2019-04-23T11:38:48.148Z,20.8
2019-04-23T11:39:30.742Z,20.9
2019-04-23T11:40:20.673Z,20.9
2019-04-23T11:41:08.873Z,21
2019-04-23T11:41:57.651Z,21
2019-04-23T11:42:42.342Z,21
2019-04-23T11:43:31.898Z,21
2019-04-23T11:45:23.625Z,21
2019-04-23T11:46:14.350Z,21
2019-04-23T11:48:59.217Z,21
2019-04-23T11:49:44.644Z,21
2019-04-23T11:51:34.652Z,21
2019-04-23T11:51:59.944Z,21.1
2019-04-23T11:52:48.177Z,21
2019-04-23T11:53:40.745Z,21
2019-04-23T11:54:22.512Z,21
2019-04-23T11:55:32.516Z,21.1
2019-04-23T11:56:10.899Z,21
2019-04-23T11:58:35.576Z,21.1
2019-04-23T11:59:35.730Z,21.2
2019-04-23T12:00:23.859Z,21.2
2019-04-23T12:01:21.303Z,21.3
2019-04-23T12:01:52.136Z,21.3
2019-04-23T12:02:52.944Z,21.3
2019-04-23T12:03:45.184Z,21.3
2019-04-23T12:04:34.792Z,21.3
2019-04-23T12:05:26.424Z,21.4
2019-04-23T12:07:39.131Z,21.4
2019-04-23T12:08:37.614Z,21.4
2019-04-23T12:09:34.600Z,21.4
2019-04-23T12:10:21.878Z,21.3
2019-04-23T12:11:38.970Z,21.2
2019-04-23T12:12:05.693Z,21.2
2019-04-23T12:12:44.449Z,21.2
2019-04-23T12:13:43.286Z,21.2
2019-04-23T12:14:38.754Z,21.3
2019-04-23T12:15:24.980Z,21.4
2019-04-23T12:16:19.930Z,21.5
2019-04-23T12:19:04.180Z,21.6
2019-04-23T12:19:51.946Z,21.6
2019-04-23T12:20:20.788Z,21.7
2019-04-23T12:21:12.334Z,21.7
2019-04-23T12:23:48.237Z,21.8
2019-04-23T12:24:56.662Z,21.8
2019-04-23T12:25:24.927Z,21.9
2019-04-23T12:26:19.056Z,21.9
2019-04-23T12:26:49.070Z,21.9
2019-04-23T12:27:38.065Z,22
2019-04-23T12:28:43.719Z,22
2019-04-23T12:29:37.121Z,22
2019-04-23T12:30:24.673Z,22.1
2019-04-23T12:31:15.739Z,22.1
2019-04-23T12:32:11.475Z,22.1
2019-04-23T12:32:53.411Z,22.1
2019-04-23T12:33:48.861Z,22.2
2019-04-23T12:34:34.137Z,22.2
2019-04-23T12:35:17.562Z,22.3
2019-04-23T12:36:21.064Z,22.4
2019-04-23T12:37:59.619Z,22.4
2019-04-23T12:38:38.253Z,22.4
2019-04-23T12:39:32.719Z,22.3
2019-04-23T12:40:24.630Z,22.4
2019-04-23T12:41:12.602Z,22.4
2019-04-23T12:42:16.590Z,22.5
2019-04-23T12:43:00.681Z,22.4
2019-04-23T12:43:38.310Z,22.4
2019-04-23T12:44:38.362Z,22.4
2019-04-23T12:45:26.620Z,22.4
2019-04-23T12:46:01.594Z,22.5
2019-04-23T12:47:12.074Z,22.5
2019-04-23T12:47:55.034Z,22.5
2019-04-23T12:48:46.325Z,22.5
2019-04-23T12:49:52.634Z,22.6
2019-04-23T12:51:16.703Z,22.6
2019-04-23T12:52:00.910Z,22.7
2019-04-23T12:52:50.819Z,22.7
2019-04-23T12:53:46.716Z,22.7
2019-04-23T12:54:49.382Z,22.7
2019-04-23T12:55:27.581Z,22.7
2019-04-23T12:56:16.675Z,22.7
2019-04-23T12:57:10.732Z,22.7
2019-04-23T12:57:44.685Z,22.8
2019-04-23T12:58:30.540Z,22.8
2019-04-23T12:59:36.267Z,22.8
2019-04-23T13:00:25.222Z,22.7
2019-04-23T13:01:13.287Z,22.7
2019-04-23T13:02:00.928Z,22.7
2019-04-23T13:03:39.007Z,22.8
2019-04-23T13:04:32.007Z,22.7
2019-04-23T13:06:07.891Z,22.8
2019-04-23T13:07:05.496Z,22.8
2019-04-23T13:08:07.407Z,22.9
2019-04-23T13:08:42.764Z,22.9
2019-04-23T13:10:31.827Z,22.9
2019-04-23T13:11:13.271Z,23
2019-04-23T13:12:08.385Z,23
2019-04-23T13:13:45.628Z,22.9
2019-04-23T13:14:40.830Z,22.9
2019-04-23T13:15:22.177Z,22.9
2019-04-23T13:18:44.615Z,22.8
2019-04-23T13:20:22.953Z,22.8
2019-04-23T13:21:21.525Z,22.8
2019-04-23T13:22:54.697Z,22.8
2019-04-23T13:23:38.773Z,22.7
2019-04-23T13:24:32.471Z,22.7
2019-04-23T13:25:26.464Z,22.6
2019-04-23T13:26:02.673Z,22.7
2019-04-23T13:27:00.456Z,22.8
2019-04-23T13:28:05.393Z,22.8
2019-04-23T13:28:37.045Z,22.8
2019-04-23T13:29:35.508Z,22.8
2019-04-23T13:30:31.363Z,22.8
2019-04-23T13:31:10.422Z,22.7
2019-04-23T13:31:47.637Z,22.7
2019-04-23T13:33:43.604Z,22.7
2019-04-23T13:34:39.705Z,22.7
2019-04-23T13:35:37.882Z,22.8
2019-04-23T13:36:58.579Z,22.8
2019-04-23T13:39:32.813Z,22.8
2019-04-23T13:40:22.573Z,22.8
2019-04-23T13:41:14.374Z,22.7
2019-04-23T13:42:02.744Z,22.7
2019-04-23T13:43:47.677Z,22.8
2019-04-23T13:44:30.894Z,22.8
2019-04-23T13:46:10.679Z,22.8
2019-04-23T13:47:08.504Z,22.8
2019-04-23T13:49:32.865Z,22.8
2019-04-23T13:50:36.721Z,22.7
2019-04-23T13:51:25.009Z,22.7
2019-04-23T13:52:04.507Z,22.7
2019-04-23T13:53:07.016Z,22.7